sensor_id;sensor_type;location;lat;lon;timestamp;temperature;humidity
52397;DHT22;38322;53.108;6.308;2022-10-16T05:02:36;12.30;99.90
52397;DHT22;38322;53.108;6.308;2022-10-16T05:05:02;12.30;99.90
52397;DHT22;38322;53.108;6.308;2022-10-16T05:07:28;12.30;99.90
52397;DHT22;38322;53.108;6.308;2022-10-16T05:09:54;12.30;99.90
52397;DHT22;38322;53.108;6.308;2022-10-16T05:12:19;12.30;99.90
52397;DHT22;38322;53.108;6.308;2022-10-16T05:14:46;12.30;99.90
52397;DHT22;38322;53.108;6.308;2022-10-16T05:17:11;12.30;99.90
52397;DHT22;38322;53.108;6.308;2022-10-16T05:19:37;12.30;99.90
52397;DHT22;38322;53.108;6.308;2022-10-16T05:22:03;12.30;99.90
52397;DHT22;38322;53.108;6.308;2022-10-16T05:24:28;12.30;99.90
52397;DHT22;38322;53.108;6.308;2022-10-16T05:26:54;12.40;99.90
52397;DHT22;38322;53.108;6.308;2022-10-16T05:29:20;12.40;99.90
52397;DHT22;38322;53.108;6.308;2022-10-16T05:31:46;12.40;99.90
52397;DHT22;38322;53.108;6.308;2022-10-16T05:34:15;12.40;99.90
52397;DHT22;38322;53.108;6.308;2022-10-16T05:36:40;12.40;99.90
52397;DHT22;38322;53.108;6.308;2022-10-16T05:39:06;12.40;99.90
52397;DHT22;38322;53.108;6.308;2022-10-16T05:41:32;12.40;99.90
52397;DHT22;38322;53.108;6.308;2022-10-16T05:43:58;12.40;99.90
52397;DHT22;38322;53.108;6.308;2022-10-16T05:46:23;12.40;99.90
52397;DHT22;38322;53.108;6.308;2022-10-16T05:48:52;12.40;99.90
52397;DHT22;38322;53.108;6.308;2022-10-16T05:51:18;12.40;99.90
52397;DHT22;38322;53.108;6.308;2022-10-16T05:53:44;12.50;99.90
52397;DHT22;38322;53.108;6.308;2022-10-16T05:56:11;12.50;99.90
52397;DHT22;38322;53.108;6.308;2022-10-16T05:58:38;12.50;99.90
52397;DHT22;38322;53.108;6.308;2022-10-16T06:01:12;12.40;99.90
52397;DHT22;38322;53.108;6.308;2022-10-16T06:03:39;12.50;99.90
52397;DHT22;38322;53.108;6.308;2022-10-16T06:06:10;12.50;99.90
52397;DHT22;38322;53.108;6.308;2022-10-16T06:08:36;12.50;99.90
52397;DHT22;38322;53.108;6.308;2022-10-16T06:11:05;12.40;99.90
52397;DHT22;38322;53.108;6.308;2022-10-16T06:13:31;12.40;99.90
52397;DHT22;38322;53.108;6.308;2022-10-16T06:15:58;12.50;99.90
52397;DHT22;38322;53.108;6.308;2022-10-16T06:18:26;12.50;99.90
52397;DHT22;38322;53.108;6.308;2022-10-16T06:20:52;12.50;99.90
52397;DHT22;38322;53.108;6.308;2022-10-16T06:23:17;12.50;99.90
52397;DHT22;38322;53.108;6.308;2022-10-16T06:25:43;12.50;99.90
52397;DHT22;38322;53.108;6.308;2022-10-16T06:28:09;12.50;99.90
52397;DHT22;38322;53.108;6.308;2022-10-16T06:30:35;12.50;99.90
52397;DHT22;38322;53.108;6.308;2022-10-16T06:33:00;12.60;99.90
52397;DHT22;38322;53.108;6.308;2022-10-16T06:35:26;12.50;99.90
52397;DHT22;38322;53.108;6.308;2022-10-16T06:37:53;12.50;99.90
52397;DHT22;38322;53.108;6.308;2022-10-16T06:40:19;12.60;99.90
52397;DHT22;38322;53.108;6.308;2022-10-16T06:42:44;12.60;99.90
52397;DHT22;38322;53.108;6.308;2022-10-16T06:45:10;12.60;99.90
52397;DHT22;38322;53.108;6.308;2022-10-16T06:47:36;12.70;99.90
52397;DHT22;38322;53.108;6.308;2022-10-16T06:50:03;12.70;99.90
52397;DHT22;38322;53.108;6.308;2022-10-16T06:52:29;12.70;99.90
52397;DHT22;38322;53.108;6.308;2022-10-16T06:54:55;12.70;99.90
52397;DHT22;38322;53.108;6.308;2022-10-16T06:57:21;12.60;99.90
52397;DHT22;38322;53.108;6.308;2022-10-16T06:59:46;12.60;99.90
52397;DHT22;38322;53.108;6.308;2022-10-16T07:02:12;12.60;99.90
52397;DHT22;38322;53.108;6.308;2022-10-16T07:04:38;12.70;99.90
52397;DHT22;38322;53.108;6.308;2022-10-16T07:07:04;12.70;99.90
52397;DHT22;38322;53.108;6.308;2022-10-16T07:09:29;12.70;99.90
52397;DHT22;38322;53.108;6.308;2022-10-16T07:11:55;12.70;99.90
52397;DHT22;38322;53.108;6.308;2022-10-16T07:14:21;12.70;99.90
52397;DHT22;38322;53.108;6.308;2022-10-16T07:16:47;12.70;99.90
52397;DHT22;38322;53.108;6.308;2022-10-16T07:19:14;12.80;99.90
52397;DHT22;38322;53.108;6.308;2022-10-16T07:21:41;12.70;99.90
52397;DHT22;38322;53.108;6.308;2022-10-16T07:24:12;12.70;99.90
52397;DHT22;38322;53.108;6.308;2022-10-16T07:26:39;12.70;99.90
52397;DHT22;38322;53.108;6.308;2022-10-16T07:29:12;12.70;99.90
52397;DHT22;38322;53.108;6.308;2022-10-16T07:31:39;12.70;99.90
52397;DHT22;38322;53.108;6.308;2022-10-16T07:34:05;12.70;99.90
52397;DHT22;38322;53.108;6.308;2022-10-16T07:36:31;12.70;99.90
52397;DHT22;38322;53.108;6.308;2022-10-16T07:38:57;12.70;99.90
52397;DHT22;38322;53.108;6.308;2022-10-16T07:41:23;12.70;99.90
52397;DHT22;38322;53.108;6.308;2022-10-16T07:43:51;12.70;99.90
52397;DHT22;38322;53.108;6.308;2022-10-16T07:46:18;12.70;99.90
52397;DHT22;38322;53.108;6.308;2022-10-16T07:48:44;12.70;99.90
52397;DHT22;38322;53.108;6.308;2022-10-16T07:51:14;12.70;99.90
52397;DHT22;38322;53.108;6.308;2022-10-16T07:53:40;12.70;99.90
52397;DHT22;38322;53.108;6.308;2022-10-16T07:56:07;12.80;99.90
52397;DHT22;38322;53.108;6.308;2022-10-16T07:58:34;12.90;99.90
52397;DHT22;38322;53.108;6.308;2022-10-16T08:01:05;12.90;99.90
52397;DHT22;38322;53.108;6.308;2022-10-16T08:03:32;12.90;99.90
52397;DHT22;38322;53.108;6.308;2022-10-16T08:05:58;12.90;99.90
52397;DHT22;38322;53.108;6.308;2022-10-16T08:08:24;12.90;99.90
52397;DHT22;38322;53.108;6.308;2022-10-16T08:10:50;12.90;99.90
52397;DHT22;38322;53.108;6.308;2022-10-16T08:13:16;12.90;99.90
52397;DHT22;38322;53.108;6.308;2022-10-16T08:15:43;12.90;99.90
52397;DHT22;38322;53.108;6.308;2022-10-16T08:18:09;12.90;99.90
52397;DHT22;38322;53.108;6.308;2022-10-16T08:20:36;13.10;99.90
52397;DHT22;38322;53.108;6.308;2022-10-16T08:23:02;13.20;99.90
52397;DHT22;38322;53.108;6.308;2022-10-16T08:25:28;13.30;99.90
52397;DHT22;38322;53.108;6.308;2022-10-16T08:27:54;13.40;99.90
52397;DHT22;38322;53.108;6.308;2022-10-16T08:30:21;13.50;99.90
52397;DHT22;38322;53.108;6.308;2022-10-16T08:32:48;13.50;99.90
52397;DHT22;38322;53.108;6.308;2022-10-16T08:35:14;13.60;99.90
52397;DHT22;38322;53.108;6.308;2022-10-16T08:37:40;13.70;99.90
52397;DHT22;38322;53.108;6.308;2022-10-16T08:40:16;13.80;99.90
52397;DHT22;38322;53.108;6.308;2022-10-16T08:45:22;13.90;99.90
52397;DHT22;38322;53.108;6.308;2022-10-16T08:48:09;14.00;99.90
52397;DHT22;38322;53.108;6.308;2022-10-16T08:50:38;14.00;99.90
52397;DHT22;38322;53.108;6.308;2022-10-16T08:53:05;14.00;99.90
52397;DHT22;38322;53.108;6.308;2022-10-16T08:55:42;14.10;99.90
52397;DHT22;38322;53.108;6.308;2022-10-16T08:58:18;14.10;99.90
52397;DHT22;38322;53.108;6.308;2022-10-16T09:00:48;14.10;99.90
52397;DHT22;38322;53.108;6.308;2022-10-16T09:09:20;14.10;99.90
52397;DHT22;38322;53.108;6.308;2022-10-16T09:11:53;14.10;99.90
52397;DHT22;38322;53.108;6.308;2022-10-16T09:17:01;14.20;99.90
52397;DHT22;38322;53.108;6.308;2022-10-16T09:19:36;14.20;99.90
52397;DHT22;38322;53.108;6.308;2022-10-16T09:22:14;14.20;99.90
52397;DHT22;38322;53.108;6.308;2022-10-16T09:24:40;14.20;99.90
52397;DHT22;38322;53.108;6.308;2022-10-16T09:27:11;14.30;99.90
52397;DHT22;38322;53.108;6.308;2022-10-16T09:29:37;14.30;99.90
52397;DHT22;38322;53.108;6.308;2022-10-16T09:32:14;14.40;99.90
52397;DHT22;38322;53.108;6.308;2022-10-16T09:34:47;14.60;99.90
52397;DHT22;38322;53.108;6.308;2022-10-16T09:37:18;14.60;99.90
52397;DHT22;38322;53.108;6.308;2022-10-16T09:39:47;14.60;99.90
52397;DHT22;38322;53.108;6.308;2022-10-16T09:42:23;14.70;99.90
52397;DHT22;38322;53.108;6.308;2022-10-16T09:44:52;14.60;99.90
52397;DHT22;38322;53.108;6.308;2022-10-16T09:47:23;14.70;99.90
52397;DHT22;38322;53.108;6.308;2022-10-16T09:49:53;14.70;99.90
52397;DHT22;38322;53.108;6.308;2022-10-16T09:52:19;14.70;99.90
52397;DHT22;38322;53.108;6.308;2022-10-16T09:54:54;14.80;99.90
52397;DHT22;38322;53.108;6.308;2022-10-16T09:57:21;14.80;99.90
52397;DHT22;38322;53.108;6.308;2022-10-16T09:59:50;14.80;99.90
52397;DHT22;38322;53.108;6.308;2022-10-16T10:02:19;14.80;99.90
52397;DHT22;38322;53.108;6.308;2022-10-16T10:04:51;14.90;99.90
52397;DHT22;38322;53.108;6.308;2022-10-16T10:07:27;14.90;99.90
52397;DHT22;38322;53.108;6.308;2022-10-16T10:09:54;15.00;99.90
52397;DHT22;38322;53.108;6.308;2022-10-16T10:12:24;15.00;99.90
52397;DHT22;38322;53.108;6.308;2022-10-16T10:14:52;15.10;99.90
52397;DHT22;38322;53.108;6.308;2022-10-16T10:17:23;15.10;99.90
52397;DHT22;38322;53.108;6.308;2022-10-16T10:19:53;15.20;99.90
52397;DHT22;38322;53.108;6.308;2022-10-16T10:22:31;15.20;99.90
52397;DHT22;38322;53.108;6.308;2022-10-16T10:30:37;15.40;99.90
52397;DHT22;38322;53.108;6.308;2022-10-16T10:33:19;15.50;99.90
52397;DHT22;38322;53.108;6.308;2022-10-16T10:44:07;15.50;99.90
52397;DHT22;38322;53.108;6.308;2022-10-16T10:46:56;15.50;99.90
52397;DHT22;38322;53.108;6.308;2022-10-16T10:49:48;15.50;99.90
52397;DHT22;38322;53.108;6.308;2022-10-16T10:55:14;15.50;99.90
52397;DHT22;38322;53.108;6.308;2022-10-16T11:03:31;15.80;99.90
52397;DHT22;38322;53.108;6.308;2022-10-16T11:06:16;16.00;99.90
52397;DHT22;38322;53.108;6.308;2022-10-16T11:08:50;16.00;99.90
52397;DHT22;38322;53.108;6.308;2022-10-16T11:11:31;16.10;99.90
52397;DHT22;38322;53.108;6.308;2022-10-16T11:14:18;16.10;99.90
52397;DHT22;38322;53.108;6.308;2022-10-16T11:16:57;16.20;99.90
52397;DHT22;38322;53.108;6.308;2022-10-16T11:24:48;16.40;99.90
52397;DHT22;38322;53.108;6.308;2022-10-16T11:27:22;16.30;99.90
52397;DHT22;38322;53.108;6.308;2022-10-16T11:29:56;16.20;99.90
52397;DHT22;38322;53.108;6.308;2022-10-16T11:32:33;16.20;99.90
52397;DHT22;38322;53.108;6.308;2022-10-16T11:35:10;16.20;99.90
52397;DHT22;38322;53.108;6.308;2022-10-16T11:37:42;16.20;99.90
52397;DHT22;38322;53.108;6.308;2022-10-16T11:40:28;16.20;99.90
52397;DHT22;38322;53.108;6.308;2022-10-16T11:43:21;16.20;99.90
52397;DHT22;38322;53.108;6.308;2022-10-16T11:45:52;16.20;99.90
52397;DHT22;38322;53.108;6.308;2022-10-16T11:48:32;16.20;99.90
52397;DHT22;38322;53.108;6.308;2022-10-16T11:51:19;16.10;99.90
52397;DHT22;38322;53.108;6.308;2022-10-16T11:54:03;16.20;99.90
52397;DHT22;38322;53.108;6.308;2022-10-16T11:56:30;16.20;99.90
52397;DHT22;38322;53.108;6.308;2022-10-16T12:01:38;16.20;99.90
52397;DHT22;38322;53.108;6.308;2022-10-16T12:06:43;16.00;99.90
52397;DHT22;38322;53.108;6.308;2022-10-16T12:09:14;16.00;99.90
52397;DHT22;38322;53.108;6.308;2022-10-16T12:11:40;16.00;99.90
52397;DHT22;38322;53.108;6.308;2022-10-16T12:16:39;16.00;99.90
52397;DHT22;38322;53.108;6.308;2022-10-16T12:19:17;15.90;99.90
52397;DHT22;38322;53.108;6.308;2022-10-16T12:21:43;15.80;99.90
52397;DHT22;38322;53.108;6.308;2022-10-16T12:24:21;15.60;99.90
52397;DHT22;38322;53.108;6.308;2022-10-16T12:26:52;15.50;99.90
52397;DHT22;38322;53.108;6.308;2022-10-16T12:29:35;15.40;99.90
52397;DHT22;38322;53.108;6.308;2022-10-16T12:32:03;15.30;99.90
52397;DHT22;38322;53.108;6.308;2022-10-16T12:34:41;15.20;99.90
52397;DHT22;38322;53.108;6.308;2022-10-16T12:37:11;15.10;99.90
52397;DHT22;38322;53.108;6.308;2022-10-16T12:39:38;15.10;99.90
52397;DHT22;38322;53.108;6.308;2022-10-16T12:42:17;15.10;99.90
52397;DHT22;38322;53.108;6.308;2022-10-16T12:44:45;15.10;99.90
52397;DHT22;38322;53.108;6.308;2022-10-16T12:49:56;15.10;99.90
52397;DHT22;38322;53.108;6.308;2022-10-16T12:52:31;15.20;99.90
52397;DHT22;38322;53.108;6.308;2022-10-16T12:55:00;15.30;99.90
52397;DHT22;38322;53.108;6.308;2022-10-16T12:57:57;15.30;99.90
52397;DHT22;38322;53.108;6.308;2022-10-16T13:00:32;15.30;99.90
52397;DHT22;38322;53.108;6.308;2022-10-16T13:03:26;15.40;99.90
52397;DHT22;38322;53.108;6.308;2022-10-16T13:11:03;15.30;99.90
52397;DHT22;38322;53.108;6.308;2022-10-16T13:19:13;15.20;99.90
52397;DHT22;38322;53.108;6.308;2022-10-16T13:21:53;15.30;99.90
52397;DHT22;38322;53.108;6.308;2022-10-16T13:24:25;15.20;99.90
52397;DHT22;38322;53.108;6.308;2022-10-16T13:29:38;15.30;99.90
52397;DHT22;38322;53.108;6.308;2022-10-16T13:32:09;15.30;99.90
52397;DHT22;38322;53.108;6.308;2022-10-16T13:34:46;15.30;99.90
52397;DHT22;38322;53.108;6.308;2022-10-16T13:37:19;15.30;99.90
52397;DHT22;38322;53.108;6.308;2022-10-16T13:39:45;15.30;99.90
52397;DHT22;38322;53.108;6.308;2022-10-16T13:42:19;15.30;99.90
52397;DHT22;38322;53.108;6.308;2022-10-16T13:44:51;15.40;99.90
52397;DHT22;38322;53.108;6.308;2022-10-16T13:47:19;15.40;99.90
52397;DHT22;38322;53.108;6.308;2022-10-16T13:49:46;15.60;99.90
52397;DHT22;38322;53.108;6.308;2022-10-16T13:52:18;15.60;99.90
52397;DHT22;38322;53.108;6.308;2022-10-16T13:54:44;15.70;99.90
52397;DHT22;38322;53.108;6.308;2022-10-16T13:57:15;15.80;99.90
52397;DHT22;38322;53.108;6.308;2022-10-16T13:59:41;15.90;99.90
52397;DHT22;38322;53.108;6.308;2022-10-16T14:02:27;15.90;99.90
52397;DHT22;38322;53.108;6.308;2022-10-16T14:04:55;15.80;99.90
52397;DHT22;38322;53.108;6.308;2022-10-16T14:07:31;15.70;99.90
52397;DHT22;38322;53.108;6.308;2022-10-16T14:10:03;15.70;99.90
52397;DHT22;38322;53.108;6.308;2022-10-16T14:12:30;15.70;99.90
52397;DHT22;38322;53.108;6.308;2022-10-16T14:14:57;15.80;99.90
52397;DHT22;38322;53.108;6.308;2022-10-16T14:17:33;15.80;99.90
52397;DHT22;38322;53.108;6.308;2022-10-16T14:20:03;15.90;99.90
52397;DHT22;38322;53.108;6.308;2022-10-16T14:22:34;15.90;99.90
52397;DHT22;38322;53.108;6.308;2022-10-16T14:25:02;15.80;99.90
52397;DHT22;38322;53.108;6.308;2022-10-16T14:27:39;15.70;99.90
52397;DHT22;38322;53.108;6.308;2022-10-16T14:30:13;15.60;99.90
52397;DHT22;38322;53.108;6.308;2022-10-16T14:32:41;15.50;99.90
52397;DHT22;38322;53.108;6.308;2022-10-16T14:35:34;15.40;99.90
52397;DHT22;38322;53.108;6.308;2022-10-16T14:38:02;15.30;99.90
52397;DHT22;38322;53.108;6.308;2022-10-16T14:40:32;15.30;99.90
52397;DHT22;38322;53.108;6.308;2022-10-16T14:43:00;15.20;99.90
52397;DHT22;38322;53.108;6.308;2022-10-16T14:45:29;15.20;99.90
52397;DHT22;38322;53.108;6.308;2022-10-16T14:47:58;15.20;99.90
52397;DHT22;38322;53.108;6.308;2022-10-16T14:50:24;15.10;99.90
52397;DHT22;38322;53.108;6.308;2022-10-16T14:52:50;15.10;99.90
52397;DHT22;38322;53.108;6.308;2022-10-16T14:55:17;15.10;99.90
52397;DHT22;38322;53.108;6.308;2022-10-16T14:57:44;15.00;99.90
52397;DHT22;38322;53.108;6.308;2022-10-16T15:00:18;14.90;99.90
52397;DHT22;38322;53.108;6.308;2022-10-16T15:02:45;14.90;99.90
52397;DHT22;38322;53.108;6.308;2022-10-16T15:05:17;14.90;99.90
52397;DHT22;38322;53.108;6.308;2022-10-16T15:07:43;14.80;99.90
52397;DHT22;38322;53.108;6.308;2022-10-16T15:10:10;14.80;99.90
52397;DHT22;38322;53.108;6.308;2022-10-16T15:12:36;14.80;99.90
52397;DHT22;38322;53.108;6.308;2022-10-16T15:15:15;14.80;99.90
52397;DHT22;38322;53.108;6.308;2022-10-16T15:17:44;14.80;99.90
52397;DHT22;38322;53.108;6.308;2022-10-16T15:20:10;14.80;99.90
52397;DHT22;38322;53.108;6.308;2022-10-16T15:22:36;14.70;99.90
52397;DHT22;38322;53.108;6.308;2022-10-16T15:25:07;14.70;99.90
52397;DHT22;38322;53.108;6.308;2022-10-16T15:27:34;14.60;99.90
52397;DHT22;38322;53.108;6.308;2022-10-16T15:30:05;14.60;99.90
52397;DHT22;38322;53.108;6.308;2022-10-16T15:32:31;14.60;99.90
52397;DHT22;38322;53.108;6.308;2022-10-16T15:34:57;14.60;99.90
52397;DHT22;38322;53.108;6.308;2022-10-16T15:37:23;14.60;99.90
52397;DHT22;38322;53.108;6.308;2022-10-16T15:39:50;14.50;99.90
52397;DHT22;38322;53.108;6.308;2022-10-16T15:42:16;14.50;99.90
52397;DHT22;38322;53.108;6.308;2022-10-16T15:44:41;14.50;99.90
52397;DHT22;38322;53.108;6.308;2022-10-16T15:47:07;14.40;99.90
52397;DHT22;38322;53.108;6.308;2022-10-16T15:49:33;14.40;99.90
52397;DHT22;38322;53.108;6.308;2022-10-16T15:51:59;14.30;99.90
52397;DHT22;38322;53.108;6.308;2022-10-16T15:54:25;14.30;99.90
52397;DHT22;38322;53.108;6.308;2022-10-16T15:56:51;14.20;99.90
52397;DHT22;38322;53.108;6.308;2022-10-16T15:59:16;14.20;99.90
52397;DHT22;38322;53.108;6.308;2022-10-16T16:01:42;14.20;99.90
52397;DHT22;38322;53.108;6.308;2022-10-16T16:04:08;14.20;99.90
52397;DHT22;38322;53.108;6.308;2022-10-16T16:06:34;14.10;99.90
52397;DHT22;38322;53.108;6.308;2022-10-16T16:09:02;14.10;99.90
52397;DHT22;38322;53.108;6.308;2022-10-16T16:11:28;14.10;99.90
52397;DHT22;38322;53.108;6.308;2022-10-16T16:13:57;14.00;99.90
52397;DHT22;38322;53.108;6.308;2022-10-16T16:16:23;14.00;99.90
52397;DHT22;38322;53.108;6.308;2022-10-16T16:18:52;13.90;99.90
52397;DHT22;38322;53.108;6.308;2022-10-16T16:21:18;13.90;99.90
52397;DHT22;38322;53.108;6.308;2022-10-16T16:23:44;13.80;99.90
52397;DHT22;38322;53.108;6.308;2022-10-16T16:26:24;13.80;99.90
52397;DHT22;38322;53.108;6.308;2022-10-16T16:28:52;13.70;99.90
52397;DHT22;38322;53.108;6.308;2022-10-16T16:31:18;13.70;99.90
52397;DHT22;38322;53.108;6.308;2022-10-16T16:33:44;13.70;99.90
52397;DHT22;38322;53.108;6.308;2022-10-16T16:36:10;13.60;99.90
52397;DHT22;38322;53.108;6.308;2022-10-16T16:38:36;13.50;99.90
52397;DHT22;38322;53.108;6.308;2022-10-16T16:41:16;13.50;99.90
52397;DHT22;38322;53.108;6.308;2022-10-16T16:43:43;13.40;99.90
52397;DHT22;38322;53.108;6.308;2022-10-16T16:46:09;13.40;99.90
52397;DHT22;38322;53.108;6.308;2022-10-16T16:48:36;13.40;99.90
52397;DHT22;38322;53.108;6.308;2022-10-16T16:51:11;13.30;99.90
52397;DHT22;38322;53.108;6.308;2022-10-16T16:53:41;13.30;99.90
52397;DHT22;38322;53.108;6.308;2022-10-16T16:56:08;13.30;99.90
52397;DHT22;38322;53.108;6.308;2022-10-16T16:58:34;13.20;99.90
52397;DHT22;38322;53.108;6.308;2022-10-16T17:01:00;13.10;99.90
52397;DHT22;38322;53.108;6.308;2022-10-16T17:03:28;13.00;99.90
52397;DHT22;38322;53.108;6.308;2022-10-16T17:05:57;12.90;99.90
52397;DHT22;38322;53.108;6.308;2022-10-16T17:08:23;12.80;99.90
52397;DHT22;38322;53.108;6.308;2022-10-16T17:10:49;12.70;99.90
52397;DHT22;38322;53.108;6.308;2022-10-16T17:13:18;12.70;99.90
52397;DHT22;38322;53.108;6.308;2022-10-16T17:15:46;12.60;99.90
52397;DHT22;38322;53.108;6.308;2022-10-16T17:18:12;12.50;99.90
52397;DHT22;38322;53.108;6.308;2022-10-16T17:20:38;12.40;99.90
52397;DHT22;38322;53.108;6.308;2022-10-16T17:23:04;12.40;99.90
52397;DHT22;38322;53.108;6.308;2022-10-16T17:25:30;12.40;99.90
52397;DHT22;38322;53.108;6.308;2022-10-16T17:27:55;12.30;99.90
52397;DHT22;38322;53.108;6.308;2022-10-16T17:30:23;12.30;99.90
52397;DHT22;38322;53.108;6.308;2022-10-16T17:32:49;12.20;99.90
52397;DHT22;38322;53.108;6.308;2022-10-16T17:35:15;12.20;99.90
52397;DHT22;38322;53.108;6.308;2022-10-16T17:37:41;12.10;99.90
52397;DHT22;38322;53.108;6.308;2022-10-16T17:40:08;12.00;99.90
52397;DHT22;38322;53.108;6.308;2022-10-16T17:42:35;11.90;99.90
52397;DHT22;38322;53.108;6.308;2022-10-16T17:45:00;11.90;99.90
52397;DHT22;38322;53.108;6.308;2022-10-16T17:47:27;11.90;99.90
52397;DHT22;38322;53.108;6.308;2022-10-16T17:49:53;11.90;99.90
52397;DHT22;38322;53.108;6.308;2022-10-16T17:52:19;11.90;99.90
52397;DHT22;38322;53.108;6.308;2022-10-16T17:54:45;12.00;99.90
52397;DHT22;38322;53.108;6.308;2022-10-16T17:57:11;11.90;99.90
52397;DHT22;38322;53.108;6.308;2022-10-16T17:59:37;11.80;99.90
52397;DHT22;38322;53.108;6.308;2022-10-16T18:02:03;11.70;99.90
52397;DHT22;38322;53.108;6.308;2022-10-16T18:04:28;11.70;99.90
52397;DHT22;38322;53.108;6.308;2022-10-16T18:06:54;11.80;99.90
52397;DHT22;38322;53.108;6.308;2022-10-16T18:09:20;11.80;99.90
52397;DHT22;38322;53.108;6.308;2022-10-16T18:11:47;11.90;99.90
52397;DHT22;38322;53.108;6.308;2022-10-16T18:14:15;11.90;99.90
52397;DHT22;38322;53.108;6.308;2022-10-16T18:16:42;11.80;99.90
52397;DHT22;38322;53.108;6.308;2022-10-16T18:19:09;11.60;99.90
52397;DHT22;38322;53.108;6.308;2022-10-16T18:21:35;11.50;99.90
52397;DHT22;38322;53.108;6.308;2022-10-16T18:24:01;11.40;99.90
52397;DHT22;38322;53.108;6.308;2022-10-16T18:26:27;11.30;99.90
52397;DHT22;38322;53.108;6.308;2022-10-16T18:28:55;11.30;99.90
52397;DHT22;38322;53.108;6.308;2022-10-16T18:31:21;11.40;99.90
52397;DHT22;38322;53.108;6.308;2022-10-16T18:33:48;11.50;99.90
52397;DHT22;38322;53.108;6.308;2022-10-16T18:36:18;11.40;99.90
52397;DHT22;38322;53.108;6.308;2022-10-16T18:38:44;11.40;99.90
52397;DHT22;38322;53.108;6.308;2022-10-16T18:41:10;11.40;99.90
52397;DHT22;38322;53.108;6.308;2022-10-16T18:43:37;11.50;99.90
52397;DHT22;38322;53.108;6.308;2022-10-16T18:46:05;11.50;99.90
52397;DHT22;38322;53.108;6.308;2022-10-16T18:48:32;11.50;99.90
52397;DHT22;38322;53.108;6.308;2022-10-16T18:51:06;11.40;99.90
52397;DHT22;38322;53.108;6.308;2022-10-16T18:53:33;11.40;99.90
52397;DHT22;38322;53.108;6.308;2022-10-16T18:55:59;11.40;99.90
52397;DHT22;38322;53.108;6.308;2022-10-16T18:58:24;11.50;99.90
52397;DHT22;38322;53.108;6.308;2022-10-16T19:00:50;11.50;99.90
52397;DHT22;38322;53.108;6.308;2022-10-16T19:03:16;11.50;99.90
52397;DHT22;38322;53.108;6.308;2022-10-16T19:05:43;11.60;99.90
52397;DHT22;38322;53.108;6.308;2022-10-16T19:08:11;11.60;99.90
52397;DHT22;38322;53.108;6.308;2022-10-16T19:10:38;11.60;99.90
52397;DHT22;38322;53.108;6.308;2022-10-16T19:13:07;11.60;99.90
52397;DHT22;38322;53.108;6.308;2022-10-16T19:15:33;11.60;99.90
52397;DHT22;38322;53.108;6.308;2022-10-16T19:17:59;11.70;99.90
52397;DHT22;38322;53.108;6.308;2022-10-16T19:20:25;11.70;99.90
52397;DHT22;38322;53.108;6.308;2022-10-16T19:22:51;11.70;99.90
52397;DHT22;38322;53.108;6.308;2022-10-16T19:25:19;11.60;99.90
52397;DHT22;38322;53.108;6.308;2022-10-16T19:27:48;11.50;99.90
52397;DHT22;38322;53.108;6.308;2022-10-16T19:30:14;11.40;99.90
52397;DHT22;38322;53.108;6.308;2022-10-16T19:32:40;11.40;99.90
52397;DHT22;38322;53.108;6.308;2022-10-16T19:35:07;11.40;99.90
52397;DHT22;38322;53.108;6.308;2022-10-16T19:37:34;11.40;99.90
52397;DHT22;38322;53.108;6.308;2022-10-16T19:40:00;11.30;99.90
52397;DHT22;38322;53.108;6.308;2022-10-16T19:42:26;11.30;99.90
52397;DHT22;38322;53.108;6.308;2022-10-16T19:44:52;11.20;99.90
52397;DHT22;38322;53.108;6.308;2022-10-16T19:47:18;11.20;99.90
52397;DHT22;38322;53.108;6.308;2022-10-16T19:49:43;11.20;99.90
52397;DHT22;38322;53.108;6.308;2022-10-16T19:52:09;11.20;99.90
52397;DHT22;38322;53.108;6.308;2022-10-16T19:54:35;11.30;99.90
52397;DHT22;38322;53.108;6.308;2022-10-16T19:57:03;11.30;99.90
52397;DHT22;38322;53.108;6.308;2022-10-16T19:59:29;11.30;99.90
